createdAt,value
2023-04-09T00:00:06.318Z,770.00
2023-04-09T00:01:07.386Z,770.00
2023-04-09T00:02:07.483Z,771.00
2023-04-09T00:03:07.502Z,771.00
2023-04-09T00:04:07.570Z,770.00
2023-04-09T00:05:07.558Z,769.00
2023-04-09T00:06:07.625Z,767.00
2023-04-09T00:07:07.669Z,764.00
2023-04-09T00:08:06.724Z,766.00
2023-04-09T00:09:07.752Z,769.00
2023-04-09T00:10:07.811Z,769.00
2023-04-09T00:11:07.869Z,769.00
2023-04-09T00:12:07.909Z,771.00
2023-04-09T00:13:07.977Z,772.00
2023-04-09T00:14:06.998Z,771.00
2023-04-09T00:15:09.700Z,767.00
2023-04-09T00:16:08.137Z,767.00
2023-04-09T00:17:08.050Z,770.00
2023-04-09T00:18:08.061Z,769.00
2023-04-09T00:19:08.017Z,768.00
2023-04-09T00:20:08.043Z,768.00
2023-04-09T00:21:08.036Z,767.00
2023-04-09T00:22:08.012Z,766.00
2023-04-09T00:23:08.022Z,763.00
2023-04-09T00:24:08.004Z,764.00
2023-04-09T00:25:08.004Z,762.00
2023-04-09T00:26:07.998Z,760.00
2023-04-09T00:27:07.985Z,758.00
2023-04-09T00:28:06.965Z,757.00
2023-04-09T00:29:07.966Z,758.00
2023-04-09T00:30:06.977Z,760.00
2023-04-09T00:31:07.952Z,762.00
2023-04-09T00:32:08.005Z,762.00
2023-04-09T00:33:07.940Z,765.00
2023-04-09T00:34:07.949Z,763.00
2023-04-09T00:35:07.933Z,766.00
2023-04-09T00:36:07.974Z,765.00
2023-04-09T00:37:06.941Z,765.00
2023-04-09T00:38:07.931Z,765.00
2023-04-09T00:39:07.891Z,764.00
2023-04-09T00:40:06.905Z,762.00
2023-04-09T00:41:07.964Z,761.00
2023-04-09T00:42:07.995Z,762.00
2023-04-09T00:43:08.075Z,762.00
2023-04-09T00:44:08.120Z,766.00
2023-04-09T00:45:08.199Z,768.00
2023-04-09T00:46:07.273Z,766.00
2023-04-09T00:47:08.263Z,769.00
2023-04-09T00:48:08.318Z,770.00
2023-04-09T00:49:08.398Z,769.00
2023-04-09T00:50:08.522Z,769.00
2023-04-09T00:51:08.488Z,769.00
2023-04-09T00:52:08.539Z,767.00
2023-04-09T00:53:07.595Z,768.00
2023-04-09T00:54:08.634Z,770.00
2023-04-09T00:55:08.693Z,771.00
2023-04-09T00:56:08.768Z,771.00
2023-04-09T00:57:08.809Z,771.00
2023-04-09T00:58:08.845Z,769.00
2023-04-09T00:59:08.909Z,769.00
2023-04-09T01:00:08.969Z,768.00
2023-04-09T01:01:09.034Z,769.00
2023-04-09T01:02:09.131Z,770.00
2023-04-09T01:03:09.176Z,770.00
2023-04-09T01:04:09.177Z,769.00
2023-04-09T01:05:08.242Z,769.00
2023-04-09T01:06:09.286Z,769.00
2023-04-09T01:07:09.347Z,769.00
2023-04-09T01:08:09.436Z,771.00
2023-04-09T01:09:09.395Z,771.00
2023-04-09T01:10:09.457Z,770.00
2023-04-09T01:11:09.512Z,771.00
2023-04-09T01:12:09.554Z,770.00
2023-04-09T01:13:09.617Z,772.00
2023-04-09T01:14:09.679Z,773.00
2023-04-09T01:15:09.702Z,771.00
2023-04-09T01:16:09.785Z,769.00
2023-04-09T01:17:09.787Z,767.00
2023-04-09T01:18:09.867Z,768.00
2023-04-09T01:19:09.896Z,765.00
2023-04-09T01:20:08.969Z,761.00
2023-04-09T01:21:09.984Z,761.00
2023-04-09T01:22:10.080Z,764.00
2023-04-09T01:23:09.105Z,765.00
2023-04-09T01:24:10.176Z,765.00
2023-04-09T01:25:10.209Z,766.00
2023-04-09T01:26:10.287Z,765.00
2023-04-09T01:27:10.300Z,766.00
2023-04-09T01:28:09.369Z,766.00
2023-04-09T01:29:09.409Z,769.00
2023-04-09T01:30:09.472Z,769.00
2023-04-09T01:31:10.530Z,768.00
2023-04-09T01:32:10.549Z,771.00
2023-04-09T01:33:09.615Z,773.00
2023-04-09T01:34:09.683Z,774.00
2023-04-09T01:35:10.728Z,774.00
2023-04-09T01:36:09.799Z,773.00
2023-04-09T01:37:10.829Z,771.00
2023-04-09T01:38:09.911Z,770.00
2023-04-09T01:39:10.933Z,768.00
2023-04-09T01:40:10.993Z,764.00
2023-04-09T01:41:11.040Z,764.00
2023-04-09T01:42:11.093Z,766.00
2023-04-09T01:43:10.131Z,766.00
2023-04-09T01:44:10.182Z,768.00
2023-04-09T01:45:10.235Z,768.00
2023-04-09T01:46:11.352Z,768.00
2023-04-09T01:47:11.329Z,769.00
2023-04-09T01:48:11.378Z,769.00
2023-04-09T01:49:10.445Z,767.00
2023-04-09T01:50:11.486Z,768.00
2023-04-09T01:51:11.532Z,767.00
2023-04-09T01:52:11.599Z,767.00
2023-04-09T01:53:10.620Z,769.00
2023-04-09T01:54:11.704Z,767.00
2023-04-09T01:55:11.717Z,768.00
2023-04-09T01:56:11.756Z,766.00
2023-04-09T01:57:11.821Z,766.00
2023-04-09T01:58:10.884Z,764.00
2023-04-09T01:59:11.941Z,763.00
2023-04-09T02:00:11.986Z,765.00
2023-04-09T02:01:11.091Z,765.00
2023-04-09T02:02:11.156Z,765.00
2023-04-09T02:03:12.160Z,767.00
2023-04-09T02:04:12.176Z,768.00
2023-04-09T02:05:12.210Z,769.00
2023-04-09T02:06:12.275Z,771.00
2023-04-09T02:07:12.312Z,769.00
2023-04-09T02:08:12.373Z,770.00
2023-04-09T02:09:12.425Z,769.00
2023-04-09T02:10:11.515Z,767.00
2023-04-09T02:11:12.529Z,766.00
2023-04-09T02:12:12.601Z,765.00
2023-04-09T02:13:11.635Z,763.00
2023-04-09T02:14:11.707Z,763.00
2023-04-09T02:15:12.760Z,764.00
2023-04-09T02:16:12.835Z,765.00
2023-04-09T02:17:12.879Z,765.00
2023-04-09T02:18:11.931Z,765.00
2023-04-09T02:19:13.002Z,763.00
2023-04-09T02:20:13.049Z,763.00
2023-04-09T02:21:13.114Z,763.00
2023-04-09T02:22:12.155Z,766.00
2023-04-09T02:23:13.220Z,766.00
2023-04-09T02:24:13.282Z,766.00
2023-04-09T02:25:13.346Z,765.00
2023-04-09T02:26:13.442Z,765.00
2023-04-09T02:27:13.478Z,765.00
2023-04-09T02:28:12.544Z,766.00
2023-04-09T02:29:13.585Z,765.00
2023-04-09T02:30:12.625Z,765.00
2023-04-09T02:31:12.717Z,764.00
2023-04-09T02:32:13.739Z,763.00
2023-04-09T02:33:13.811Z,763.00
2023-04-09T02:34:13.908Z,765.00
2023-04-09T02:35:13.925Z,768.00
2023-04-09T02:36:13.138Z,770.00
2023-04-09T02:37:14.032Z,769.00
2023-04-09T02:38:14.083Z,771.00
2023-04-09T02:39:14.182Z,770.00
2023-04-09T02:40:14.184Z,769.00
2023-04-09T02:41:14.256Z,770.00
2023-04-09T02:42:14.324Z,769.00
2023-04-09T02:43:13.358Z,770.00
2023-04-09T02:44:14.420Z,767.00
2023-04-09T02:45:14.464Z,767.00
2023-04-09T02:46:13.558Z,765.00
2023-04-09T02:47:14.589Z,763.00
2023-04-09T02:48:14.651Z,763.00
2023-04-09T02:49:14.744Z,763.00
2023-04-09T02:50:14.773Z,763.00
2023-04-09T02:51:14.832Z,766.00
2023-04-09T02:52:14.853Z,769.00
2023-04-09T02:53:14.905Z,771.00
2023-04-09T02:54:14.998Z,771.00
2023-04-09T02:55:15.028Z,770.00
2023-04-09T02:56:15.397Z,772.00
2023-04-09T02:57:14.154Z,772.00
2023-04-09T02:58:14.224Z,771.00
2023-04-09T02:59:15.277Z,768.00
2023-04-09T03:00:15.318Z,767.00
2023-04-09T03:01:15.381Z,768.00
2023-04-09T03:02:15.572Z,769.00
2023-04-09T03:03:14.638Z,773.00
2023-04-09T03:04:14.693Z,773.00
2023-04-09T03:05:15.608Z,771.00
2023-04-09T03:06:14.645Z,771.00
2023-04-09T03:07:14.701Z,771.00
2023-04-09T03:08:15.784Z,771.00
2023-04-09T03:09:15.815Z,770.00
2023-04-09T03:10:15.949Z,769.00
2023-04-09T03:11:15.950Z,768.00
2023-04-09T03:12:15.985Z,767.00
2023-04-09T03:13:15.035Z,767.00
2023-04-09T03:14:15.129Z,765.00
2023-04-09T03:15:16.151Z,763.00
2023-04-09T03:16:15.241Z,763.00
2023-04-09T03:17:16.257Z,763.00
2023-04-09T03:18:15.335Z,762.00
2023-04-09T03:19:16.382Z,760.00
2023-04-09T03:20:16.457Z,762.00
2023-04-09T03:21:15.477Z,764.00
2023-04-09T03:22:16.524Z,762.00
2023-04-09T03:23:16.586Z,761.00
2023-04-09T03:24:16.628Z,762.00
2023-04-09T03:25:16.713Z,761.00
2023-04-09T03:26:16.752Z,758.00
2023-04-09T03:27:16.817Z,758.00
2023-04-09T03:28:15.872Z,760.00
2023-04-09T03:29:16.957Z,758.00
2023-04-09T03:30:15.985Z,764.00
2023-04-09T03:31:17.057Z,762.00
2023-04-09T03:32:18.952Z,764.00
2023-04-09T03:33:16.074Z,765.00
2023-04-09T03:34:17.085Z,767.00
2023-04-09T03:35:17.095Z,770.00
2023-04-09T03:36:17.063Z,770.00
2023-04-09T03:37:17.039Z,768.00
2023-04-09T03:38:17.040Z,768.00
2023-04-09T03:39:17.038Z,766.00
2023-04-09T03:40:17.036Z,764.00
2023-04-09T03:41:17.036Z,767.00
2023-04-09T03:42:16.009Z,766.00
2023-04-09T03:43:16.013Z,764.00
2023-04-09T03:44:17.008Z,768.00
2023-04-09T03:45:17.017Z,767.00
2023-04-09T03:46:16.033Z,769.00
2023-04-09T03:47:15.980Z,772.00
2023-04-09T03:48:16.985Z,774.00
2023-04-09T03:49:16.965Z,775.00
2023-04-09T03:50:15.952Z,775.00
2023-04-09T03:51:16.955Z,775.00
2023-04-09T03:52:16.954Z,777.00
2023-04-09T03:53:15.924Z,775.00
2023-04-09T03:54:15.943Z,773.00
2023-04-09T03:55:15.921Z,771.00
2023-04-09T03:56:16.918Z,769.00
2023-04-09T03:57:16.915Z,768.00
2023-04-09T03:58:16.908Z,768.00
2023-04-09T03:59:16.894Z,769.00
2023-04-09T04:00:16.966Z,767.00
2023-04-09T04:01:17.023Z,768.00
2023-04-09T04:02:16.208Z,767.00
2023-04-09T04:03:17.303Z,765.00
2023-04-09T04:04:16.251Z,765.00
2023-04-09T04:05:17.240Z,768.00
2023-04-09T04:06:16.285Z,769.00
2023-04-09T04:07:17.332Z,769.00
2023-04-09T04:08:17.393Z,768.00
2023-04-09T04:09:17.449Z,767.00
2023-04-09T04:10:17.539Z,767.00
2023-04-09T04:11:17.588Z,769.00
2023-04-09T04:12:17.645Z,769.00
2023-04-09T04:13:16.784Z,770.00
2023-04-09T04:14:17.768Z,770.00
2023-04-09T04:15:17.843Z,768.00
2023-04-09T04:16:17.948Z,766.00
2023-04-09T04:17:18.012Z,762.00
2023-04-09T04:18:18.028Z,762.00
2023-04-09T04:19:18.078Z,762.00
2023-04-09T04:20:18.158Z,762.00
2023-04-09T04:21:18.188Z,763.00
2023-04-09T04:22:18.249Z,761.00
2023-04-09T04:23:18.323Z,762.00
2023-04-09T04:24:18.369Z,765.00
2023-04-09T04:25:18.438Z,764.00
2023-04-09T04:26:17.513Z,763.00
2023-04-09T04:27:18.538Z,763.00
2023-04-09T04:28:18.608Z,762.00
2023-04-09T04:29:17.653Z,761.00
2023-04-09T04:30:17.727Z,760.00
2023-04-09T04:31:18.845Z,759.00
2023-04-09T04:32:18.838Z,760.00
2023-04-09T04:33:18.918Z,758.00
2023-04-09T04:34:17.936Z,762.00
2023-04-09T04:35:19.116Z,764.00
2023-04-09T04:36:19.066Z,765.00
2023-04-09T04:37:19.091Z,766.00
2023-04-09T04:38:19.146Z,766.00
2023-04-09T04:39:19.207Z,767.00
2023-04-09T04:40:19.273Z,766.00
2023-04-09T04:41:18.330Z,763.00
2023-04-09T04:42:19.377Z,764.00
2023-04-09T04:43:18.415Z,763.00
2023-04-09T04:44:18.473Z,763.00
2023-04-09T04:45:18.517Z,765.00
2023-04-09T04:46:19.669Z,768.00
2023-04-09T04:47:19.629Z,768.00
2023-04-09T04:48:18.687Z,770.00
2023-04-09T04:49:19.750Z,767.00
2023-04-09T04:50:18.780Z,769.00
2023-04-09T04:51:19.845Z,769.00
2023-04-09T04:52:19.875Z,767.00
2023-04-09T04:53:19.928Z,765.00
2023-04-09T04:54:19.985Z,764.00
2023-04-09T04:55:20.029Z,764.00
2023-04-09T04:56:20.095Z,762.00
2023-04-09T04:57:20.135Z,762.00
2023-04-09T04:58:19.229Z,759.00
2023-04-09T04:59:20.240Z,761.00
2023-04-09T05:00:20.304Z,764.00
2023-04-09T05:01:19.408Z,767.00
2023-04-09T05:02:20.612Z,769.00
2023-04-09T05:03:20.507Z,770.00
2023-04-09T05:04:20.506Z,769.00
2023-04-09T05:05:20.594Z,769.00
2023-04-09T05:06:19.605Z,769.00
2023-04-09T05:07:20.657Z,767.00
2023-04-09T05:08:20.695Z,765.00
2023-04-09T05:09:22.428Z,769.00
2023-04-09T05:10:20.762Z,766.00
2023-04-09T05:11:19.774Z,765.00
2023-04-09T05:12:20.742Z,768.00
2023-04-09T05:13:20.736Z,767.00
2023-04-09T05:14:20.714Z,765.00
2023-04-09T05:15:22.234Z,764.00
2023-04-09T05:16:20.840Z,763.00
2023-04-09T05:17:20.901Z,763.00
2023-04-09T05:18:19.910Z,763.00
2023-04-09T05:19:19.962Z,763.00
2023-04-09T05:20:21.048Z,766.00
2023-04-09T05:21:21.137Z,764.00
2023-04-09T05:22:20.141Z,761.00
2023-04-09T05:23:20.208Z,764.00
2023-04-09T05:24:21.271Z,762.00
2023-04-09T05:25:21.352Z,761.00
2023-04-09T05:26:21.407Z,762.00
2023-04-09T05:27:21.458Z,764.00
2023-04-09T05:28:20.529Z,761.00
2023-04-09T05:29:20.593Z,762.00
2023-04-09T05:30:20.647Z,762.00
2023-04-09T05:31:21.727Z,761.00
2023-04-09T05:32:21.809Z,760.00
2023-04-09T05:33:21.849Z,763.00
2023-04-09T05:34:21.917Z,765.00
2023-04-09T05:35:20.970Z,764.00
2023-04-09T05:36:22.054Z,764.00
2023-04-09T05:37:21.126Z,762.00
2023-04-09T05:38:22.179Z,766.00
2023-04-09T05:39:22.211Z,767.00
2023-04-09T05:40:22.320Z,768.00
2023-04-09T05:41:22.368Z,766.00
2023-04-09T05:42:21.406Z,765.00
2023-04-09T05:43:22.475Z,766.00
2023-04-09T05:44:22.526Z,768.00
2023-04-09T05:45:21.607Z,767.00
2023-04-09T05:46:22.872Z,766.00
2023-04-09T05:47:22.875Z,767.00
2023-04-09T05:48:21.785Z,766.00
2023-04-09T05:49:22.853Z,766.00
2023-04-09T05:50:22.929Z,763.00
2023-04-09T05:51:22.977Z,764.00
2023-04-09T05:52:23.108Z,765.00
2023-04-09T05:53:22.099Z,771.00
2023-04-09T05:54:23.168Z,771.00
2023-04-09T05:55:22.224Z,773.00
2023-04-09T05:56:23.286Z,772.00
2023-04-09T05:57:23.356Z,774.00
2023-04-09T05:58:22.435Z,770.00
2023-04-09T05:59:22.481Z,770.00
2023-04-09T06:00:23.552Z,770.00
2023-04-09T06:01:23.645Z,767.00
2023-04-09T06:02:23.805Z,766.00
2023-04-09T06:03:23.851Z,766.00
2023-04-09T06:04:24.036Z,768.00
2023-04-09T06:05:23.869Z,769.00
2023-04-09T06:06:23.963Z,770.00
2023-04-09T06:07:22.996Z,770.00
2023-04-09T06:08:24.092Z,771.00
2023-04-09T06:09:24.137Z,771.00
2023-04-09T06:10:24.221Z,771.00
2023-04-09T06:11:24.281Z,773.00
2023-04-09T06:12:23.313Z,771.00
2023-04-09T06:13:24.369Z,770.00
2023-04-09T06:14:24.443Z,768.00
2023-04-09T06:15:24.493Z,771.00
2023-04-09T06:16:23.612Z,774.00
2023-04-09T06:17:23.643Z,777.00
2023-04-09T06:18:24.678Z,777.00
2023-04-09T06:19:23.747Z,775.00
2023-04-09T06:20:24.888Z,771.00
2023-04-09T06:21:23.869Z,769.00
2023-04-09T06:22:23.923Z,767.00
2023-04-09T06:23:24.999Z,769.00
2023-04-09T06:24:24.909Z,766.00
2023-04-09T06:25:25.124Z,767.00
2023-04-09T06:26:24.171Z,769.00
2023-04-09T06:27:25.250Z,767.00
2023-04-09T06:28:25.285Z,767.00
2023-04-09T06:29:25.366Z,767.00
2023-04-09T06:30:25.417Z,768.00
2023-04-09T06:31:24.504Z,767.00
2023-04-09T06:32:24.599Z,767.00
2023-04-09T06:33:25.694Z,765.00
2023-04-09T06:34:25.675Z,762.00
2023-04-09T06:35:25.746Z,763.00
2023-04-09T06:36:25.804Z,764.00
2023-04-09T06:37:25.918Z,767.00
2023-04-09T06:38:25.911Z,767.00
2023-04-09T06:39:25.980Z,769.00
2023-04-09T06:40:26.074Z,772.00
2023-04-09T06:41:26.112Z,773.00
2023-04-09T06:42:26.218Z,772.00
2023-04-09T06:43:25.227Z,768.00
2023-04-09T06:44:26.299Z,769.00
2023-04-09T06:45:26.370Z,769.00
2023-04-09T06:46:26.491Z,769.00
2023-04-09T06:47:25.523Z,770.00
2023-04-09T06:48:26.561Z,775.00
2023-04-09T06:49:26.618Z,777.00
2023-04-09T06:50:25.692Z,780.00
2023-04-09T06:51:26.749Z,779.00
2023-04-09T06:52:25.822Z,778.00
2023-04-09T06:53:26.906Z,777.00
2023-04-09T06:54:26.924Z,779.00
2023-04-09T06:55:25.961Z,777.00
2023-04-09T06:56:27.056Z,776.00
2023-04-09T06:57:27.234Z,774.00
2023-04-09T06:58:26.160Z,772.00
2023-04-09T06:59:27.216Z,773.00
2023-04-09T07:00:27.283Z,772.00
2023-04-09T07:01:26.369Z,774.00
2023-04-09T07:02:27.599Z,773.00
2023-04-09T07:03:26.581Z,774.00
2023-04-09T07:04:27.618Z,776.00
2023-04-09T07:05:27.571Z,774.00
2023-04-09T07:06:26.632Z,776.00
2023-04-09T07:07:26.697Z,775.00
2023-04-09T07:08:27.740Z,776.00
2023-04-09T07:09:26.810Z,772.00
2023-04-09T07:10:26.884Z,774.00
2023-04-09T07:11:26.943Z,774.00
2023-04-09T07:12:28.244Z,773.00
2023-04-09T07:14:27.142Z,774.00
2023-04-09T07:15:28.207Z,775.00
2023-04-09T07:16:27.333Z,775.00
2023-04-09T07:17:27.351Z,776.00
2023-04-09T07:18:27.371Z,774.00
2023-04-09T07:19:28.457Z,771.00
2023-04-09T07:20:28.493Z,774.00
2023-04-09T07:21:27.562Z,775.00
2023-04-09T07:22:28.630Z,772.00
2023-04-09T07:23:28.681Z,773.00
2023-04-09T07:24:28.735Z,771.00
2023-04-09T07:25:28.802Z,770.00
2023-04-09T07:26:28.863Z,769.00
2023-04-09T07:27:28.926Z,770.00
2023-04-09T07:28:28.004Z,770.00
2023-04-09T07:29:29.037Z,771.00
2023-04-09T07:30:28.143Z,769.00
2023-04-09T07:31:28.197Z,770.00
2023-04-09T07:32:28.454Z,769.00
2023-04-09T07:33:29.260Z,769.00
2023-04-09T07:34:29.311Z,767.00
2023-04-09T07:35:29.384Z,767.00
2023-04-09T07:36:29.413Z,768.00
2023-04-09T07:37:29.478Z,771.00
2023-04-09T07:38:29.526Z,771.00
2023-04-09T07:39:29.572Z,771.00
2023-04-09T07:40:28.628Z,771.00
2023-04-09T07:41:28.687Z,773.00
2023-04-09T07:42:29.743Z,776.00
2023-04-09T07:43:29.810Z,774.00
2023-04-09T07:44:28.848Z,771.00
2023-04-09T07:45:29.062Z,771.00
2023-04-09T07:46:29.988Z,772.00
2023-04-09T07:47:30.000Z,773.00
2023-04-09T07:48:29.050Z,770.00
2023-04-09T07:49:30.109Z,769.00
2023-04-09T07:50:30.148Z,773.00
2023-04-09T07:51:30.208Z,776.00
2023-04-09T07:52:30.269Z,777.00
2023-04-09T07:53:29.320Z,778.00
2023-04-09T07:54:30.367Z,779.00
2023-04-09T07:55:30.423Z,776.00
2023-04-09T07:56:29.465Z,777.00
2023-04-09T07:57:30.541Z,776.00
2023-04-09T07:58:30.580Z,776.00
2023-04-09T07:59:30.661Z,776.00
2023-04-09T08:00:30.709Z,772.00
2023-04-09T08:01:30.720Z,772.00
2023-04-09T08:02:30.258Z,770.00
2023-04-09T08:03:30.143Z,769.00
2023-04-09T08:04:30.941Z,769.00
2023-04-09T08:05:29.917Z,770.00
2023-04-09T08:06:30.959Z,771.00
2023-04-09T08:07:31.014Z,772.00
2023-04-09T08:08:31.054Z,773.00
2023-04-09T08:09:31.099Z,772.00
2023-04-09T08:10:30.174Z,771.00
2023-04-09T08:11:31.194Z,771.00
2023-04-09T08:12:31.245Z,769.00
2023-04-09T08:13:31.297Z,769.00
2023-04-09T08:14:30.380Z,771.00
2023-04-09T08:15:31.407Z,768.00
2023-04-09T08:16:31.473Z,769.00
2023-04-09T08:17:31.494Z,771.00
2023-04-09T08:18:30.514Z,773.00
2023-04-09T08:19:31.560Z,773.00
2023-04-09T08:20:30.624Z,772.00
2023-04-09T08:21:30.657Z,774.00
2023-04-09T08:22:31.704Z,776.00
2023-04-09T08:23:31.750Z,773.00
2023-04-09T08:24:31.785Z,774.00
2023-04-09T08:25:30.832Z,776.00
2023-04-09T08:26:31.885Z,776.00
2023-04-09T08:27:31.915Z,775.00
2023-04-09T08:28:30.974Z,773.00
2023-04-09T08:29:32.113Z,768.00
2023-04-09T08:30:31.063Z,772.00
2023-04-09T08:31:32.164Z,770.00
2023-04-09T08:32:32.164Z,771.00
2023-04-09T08:33:32.172Z,772.00
2023-04-09T08:34:32.216Z,771.00
2023-04-09T08:35:32.253Z,769.00
2023-04-09T08:36:32.352Z,769.00
2023-04-09T08:37:32.348Z,771.00
2023-04-09T08:38:32.376Z,769.00
2023-04-09T08:39:32.431Z,768.00
2023-04-09T08:40:32.474Z,769.00
2023-04-09T08:41:32.521Z,772.00
2023-04-09T08:42:31.591Z,769.00
2023-04-09T08:43:52.558Z,767.00
2023-04-09T08:44:32.607Z,768.00
2023-04-09T08:45:31.608Z,771.00
2023-04-09T08:46:32.590Z,767.00
2023-04-09T08:47:32.636Z,764.00
2023-04-09T08:48:32.709Z,764.00
2023-04-09T08:49:32.579Z,766.00
2023-04-09T08:50:32.558Z,770.00
2023-04-09T08:51:31.570Z,769.00
2023-04-09T08:52:31.569Z,772.00
2023-04-09T08:53:32.548Z,771.00
2023-04-09T08:54:32.549Z,771.00
2023-04-09T08:55:32.607Z,770.00
2023-04-09T08:56:32.580Z,768.00
2023-04-09T08:57:31.559Z,766.00
2023-04-09T08:58:31.588Z,767.00
2023-04-09T08:59:32.611Z,770.00
2023-04-09T09:00:32.713Z,771.00
2023-04-09T09:01:32.868Z,773.00
2023-04-09T09:02:32.781Z,769.00
2023-04-09T09:03:31.833Z,769.00
2023-04-09T09:04:32.929Z,769.00
2023-04-09T09:05:31.801Z,769.00
2023-04-09T09:06:33.350Z,767.00
2023-04-09T09:07:32.889Z,763.00
2023-04-09T09:08:31.905Z,767.00
2023-04-09T09:09:31.915Z,766.00
2023-04-09T09:10:32.960Z,768.00
2023-04-09T09:11:33.002Z,768.00
2023-04-09T09:12:33.024Z,769.00
2023-04-09T09:13:33.456Z,769.00
2023-04-09T09:14:33.093Z,771.00
2023-04-09T09:15:33.130Z,772.00
2023-04-09T09:16:32.162Z,771.00
2023-04-09T09:17:33.219Z,773.00
2023-04-09T09:18:33.209Z,770.00
2023-04-09T09:19:33.258Z,768.00
2023-04-09T09:20:33.273Z,772.00
2023-04-09T09:21:33.288Z,771.00
2023-04-09T09:22:32.288Z,770.00
2023-04-09T09:23:33.307Z,771.00
2023-04-09T09:24:33.320Z,772.00
2023-04-09T09:25:32.346Z,773.00
2023-04-09T09:26:33.368Z,769.00
2023-04-09T09:27:33.404Z,772.00
2023-04-09T09:28:33.405Z,773.00
2023-04-09T09:29:33.426Z,774.00
2023-04-09T09:30:33.517Z,772.00
2023-04-09T09:31:32.471Z,774.00
2023-04-09T09:32:32.489Z,776.00
2023-04-09T09:33:32.502Z,777.00
2023-04-09T09:34:33.502Z,776.00
2023-04-09T09:35:32.583Z,775.00
2023-04-09T09:36:32.546Z,775.00
2023-04-09T09:37:33.559Z,774.00
2023-04-09T09:38:32.556Z,774.00
2023-04-09T09:39:33.583Z,773.00
2023-04-09T09:40:32.568Z,777.00
2023-04-09T09:41:32.613Z,776.00
2023-04-09T09:42:33.592Z,774.00
2023-04-09T09:43:33.580Z,776.00
2023-04-09T09:44:32.568Z,774.00
2023-04-09T09:45:33.574Z,773.00
2023-04-09T09:46:33.668Z,769.00
2023-04-09T09:47:33.584Z,767.00
2023-04-09T09:48:33.565Z,767.00
2023-04-09T09:49:33.565Z,768.00
2023-04-09T09:50:33.567Z,767.00
2023-04-09T09:51:32.578Z,765.00
2023-04-09T09:52:33.586Z,764.00
2023-04-09T09:53:33.551Z,765.00
2023-04-09T09:54:33.545Z,764.00
2023-04-09T09:55:33.559Z,764.00
2023-04-09T09:56:33.580Z,763.00
2023-04-09T09:57:32.584Z,764.00
2023-04-09T09:58:33.554Z,762.00
2023-04-09T09:59:33.565Z,761.00
2023-04-09T10:00:33.578Z,763.00
2023-04-09T10:01:32.591Z,761.00
2023-04-09T10:02:33.677Z,762.00
2023-04-09T10:03:33.673Z,757.00
2023-04-09T10:04:33.693Z,757.00
2023-04-09T10:05:32.716Z,761.00
2023-04-09T10:06:33.721Z,761.00
2023-04-09T10:07:33.801Z,763.00
2023-04-09T10:08:32.805Z,766.00
2023-04-09T10:09:33.836Z,766.00
2023-04-09T10:10:33.873Z,767.00
2023-04-09T10:11:33.909Z,768.00
2023-04-09T10:12:33.989Z,768.00
2023-04-09T10:13:34.017Z,769.00
2023-04-09T10:14:34.085Z,766.00
2023-04-09T10:15:33.163Z,767.00
2023-04-09T10:16:33.128Z,766.00
2023-04-09T10:17:33.143Z,765.00
2023-04-09T10:18:33.146Z,766.00
2023-04-09T10:19:33.131Z,766.00
2023-04-09T10:20:33.146Z,766.00
2023-04-09T10:21:33.142Z,764.00
2023-04-09T10:22:33.132Z,764.00
2023-04-09T10:23:33.160Z,763.00
2023-04-09T10:24:33.119Z,762.00
2023-04-09T10:25:33.108Z,761.00
2023-04-09T10:26:34.148Z,756.00
2023-04-09T10:27:34.118Z,757.00
2023-04-09T10:28:33.098Z,759.00
2023-04-09T10:29:34.095Z,763.00
2023-04-09T10:30:33.094Z,762.00
2023-04-09T10:31:33.110Z,763.00
2023-04-09T10:32:34.126Z,763.00
2023-04-09T10:33:33.102Z,764.00
2023-04-09T10:34:34.086Z,768.00
2023-04-09T10:35:34.083Z,769.00
2023-04-09T10:36:34.095Z,771.00
2023-04-09T10:37:33.086Z,773.00
2023-04-09T10:38:33.082Z,773.00
2023-04-09T10:39:34.127Z,774.00
2023-04-09T10:40:34.086Z,770.00
2023-04-09T10:41:34.095Z,769.00
2023-04-09T10:42:34.108Z,766.00
2023-04-09T10:43:33.093Z,767.00
2023-04-09T10:44:33.089Z,767.00
2023-04-09T10:45:34.106Z,768.00
2023-04-09T10:46:34.134Z,772.00
2023-04-09T10:47:34.285Z,774.00
2023-04-09T10:48:34.087Z,771.00
2023-04-09T10:49:34.081Z,769.00
2023-04-09T10:50:33.056Z,772.00
2023-04-09T10:51:34.059Z,773.00
2023-04-09T10:52:34.083Z,769.00
2023-04-09T10:53:34.080Z,767.00
2023-04-09T10:54:34.098Z,767.00
2023-04-09T10:55:34.091Z,765.00
2023-04-09T10:56:34.079Z,764.00
2023-04-09T10:57:33.085Z,761.00
2023-04-09T10:58:34.069Z,762.00
2023-04-09T10:59:33.063Z,767.00
2023-04-09T11:00:34.080Z,769.00
2023-04-09T11:01:34.179Z,772.00
2023-04-09T11:02:34.253Z,771.00
2023-04-09T11:03:33.103Z,771.00
2023-04-09T11:04:33.053Z,767.00
2023-04-09T11:05:33.046Z,765.00
2023-04-09T11:06:34.032Z,765.00
2023-04-09T11:07:34.062Z,764.00
2023-04-09T11:08:34.144Z,763.00
2023-04-09T11:09:34.067Z,764.00
2023-04-09T11:10:34.046Z,761.00
2023-04-09T11:11:33.066Z,758.00
2023-04-09T11:12:34.058Z,757.00
2023-04-09T11:13:34.157Z,757.00
2023-04-09T11:14:34.036Z,758.00
2023-04-09T11:15:34.034Z,759.00
2023-04-09T11:16:34.063Z,759.00
2023-04-09T11:17:33.069Z,759.00
2023-04-09T11:18:34.010Z,759.00
2023-04-09T11:19:33.030Z,763.00
2023-04-09T11:20:34.011Z,762.00
2023-04-09T11:21:35.533Z,764.00
2023-04-09T11:22:33.995Z,767.00
2023-04-09T11:23:32.986Z,767.00
2023-04-09T11:24:32.974Z,767.00
2023-04-09T11:25:33.990Z,766.00
2023-04-09T11:26:33.989Z,765.00
2023-04-09T11:27:33.056Z,767.00
2023-04-09T11:28:33.952Z,768.00
2023-04-09T11:29:33.941Z,769.00
2023-04-09T11:30:33.923Z,767.00
2023-04-09T11:31:33.942Z,765.00
2023-04-09T11:32:33.970Z,765.00
2023-04-09T11:33:33.930Z,763.00
2023-04-09T11:34:33.913Z,764.00
2023-04-09T11:35:33.927Z,766.00
2023-04-09T11:36:33.888Z,763.00
2023-04-09T11:37:33.943Z,763.00
2023-04-09T11:38:33.879Z,765.00
2023-04-09T11:39:33.877Z,763.00
2023-04-09T11:40:33.869Z,762.00
2023-04-09T11:41:33.966Z,762.00
2023-04-09T11:42:33.842Z,758.00
2023-04-09T11:43:33.874Z,759.00
2023-04-09T11:44:32.829Z,759.00
2023-04-09T11:45:32.822Z,758.00
2023-04-09T11:46:33.833Z,758.00
2023-04-09T11:47:33.828Z,760.00
2023-04-09T11:48:33.959Z,760.00
2023-04-09T11:49:33.805Z,758.00
2023-04-09T11:50:33.790Z,759.00
2023-04-09T11:51:33.782Z,761.00
2023-04-09T11:52:33.779Z,760.00
2023-04-09T11:53:33.779Z,760.00
2023-04-09T11:54:33.819Z,761.00
2023-04-09T11:55:32.760Z,759.00
2023-04-09T11:56:33.756Z,757.00
2023-04-09T11:57:33.747Z,755.00
2023-04-09T11:58:32.744Z,751.00
2023-04-09T11:59:33.863Z,753.00
2023-04-09T12:00:33.750Z,754.00
2023-04-09T12:01:33.760Z,753.00
2023-04-09T12:02:32.840Z,753.00
2023-04-09T12:03:34.197Z,754.00
2023-04-09T12:04:32.805Z,757.00
2023-04-09T12:05:32.765Z,758.00
2023-04-09T12:06:32.675Z,758.00
2023-04-09T12:07:33.680Z,755.00
2023-04-09T12:08:32.670Z,757.00
2023-04-09T12:09:32.668Z,755.00
2023-04-09T12:10:32.671Z,754.00
2023-04-09T12:11:33.650Z,753.00
2023-04-09T12:12:33.637Z,752.00
2023-04-09T12:13:33.635Z,752.00
2023-04-09T12:14:33.635Z,752.00
2023-04-09T12:15:33.652Z,755.00
2023-04-09T12:16:33.632Z,756.00
2023-04-09T12:17:33.676Z,756.00
2023-04-09T12:18:33.611Z,758.00
2023-04-09T12:19:33.598Z,755.00
2023-04-09T12:20:33.588Z,759.00
2023-04-09T12:21:32.578Z,759.00
2023-04-09T12:22:33.568Z,760.00
2023-04-09T12:23:32.571Z,763.00
2023-04-09T12:24:33.573Z,762.00
2023-04-09T12:25:33.564Z,757.00
2023-04-09T12:26:33.553Z,756.00
2023-04-09T12:27:34.048Z,758.00
2023-04-09T12:28:33.522Z,759.00
2023-04-09T12:29:32.529Z,760.00